Decota, West Virginia
Current Conditions -  °F | °C
As of 8:54 AM on Friday 28 Nov 2014 (Local Time) from KCRW Reporting Station
Overcast Overcast  
Wind Chill: 23°   Ceiling: 4000
Heat Index: 28°   Visibility: 10mi
Dew Point: 16°   Wind: 5mph
Humidity: 61%   Direction: 270°W
Pressure: 30.39"   Gusts: NA
Location:  38.0912°N, 81.4436°W
Report Text: KCRW 281354Z 27004KT 10SM OVC040 M02/M09 A3039 RMK AO2 SLP303 OCNL BINOVC T10221089
Loading
Personal Weather Stations






























Interactive Weather Map New forecast layout! Learn more

10-Day Weather Forecast

Advertisements
Track Severe Weather on mobile